sensor_id;sensor_type;location;lat;lon;timestamp;temperature;humidity
11639;DHT22;5875;35.940;126.892;2023-12-20T00:02:18;0.20;99.90
11639;DHT22;5875;35.940;126.892;2023-12-20T00:04:45;0.20;99.90
11639;DHT22;5875;35.940;126.892;2023-12-20T00:07:12;0.10;99.90
11639;DHT22;5875;35.940;126.892;2023-12-20T00:09:40;0.10;99.90
11639;DHT22;5875;35.940;126.892;2023-12-20T00:12:07;0.20;99.90
11639;DHT22;5875;35.940;126.892;2023-12-20T00:14:34;0.20;99.90
11639;DHT22;5875;35.940;126.892;2023-12-20T00:17:01;0.20;99.90
11639;DHT22;5875;35.940;126.892;2023-12-20T00:19:28;0.20;99.90
11639;DHT22;5875;35.940;126.892;2023-12-20T00:21:55;0.20;99.90
11639;DHT22;5875;35.940;126.892;2023-12-20T00:24:25;0.20;99.90
11639;DHT22;5875;35.940;126.892;2023-12-20T00:26:52;0.10;99.90
11639;DHT22;5875;35.940;126.892;2023-12-20T00:29:22;0.10;99.90
11639;DHT22;5875;35.940;126.892;2023-12-20T00:31:49;0.10;99.90
11639;DHT22;5875;35.940;126.892;2023-12-20T00:34:16;0.10;99.90
11639;DHT22;5875;35.940;126.892;2023-12-20T00:36:43;0.40;99.90
11639;DHT22;5875;35.940;126.892;2023-12-20T00:39:11;0.60;99.90
11639;DHT22;5875;35.940;126.892;2023-12-20T00:41:38;0.50;99.90
11639;DHT22;5875;35.940;126.892;2023-12-20T00:44:05;0.40;99.90
11639;DHT22;5875;35.940;126.892;2023-12-20T00:46:32;0.50;99.90
11639;DHT22;5875;35.940;126.892;2023-12-20T00:48:59;0.50;99.90
11639;DHT22;5875;35.940;126.892;2023-12-20T00:51:26;0.40;99.90
11639;DHT22;5875;35.940;126.892;2023-12-20T00:53:53;0.40;99.90
11639;DHT22;5875;35.940;126.892;2023-12-20T00:56:21;0.50;99.90
11639;DHT22;5875;35.940;126.892;2023-12-20T00:58:48;0.80;99.90
11639;DHT22;5875;35.940;126.892;2023-12-20T01:01:16;0.90;99.90
11639;DHT22;5875;35.940;126.892;2023-12-20T01:03:43;0.80;99.90
11639;DHT22;5875;35.940;126.892;2023-12-20T01:06:10;0.70;99.90
11639;DHT22;5875;35.940;126.892;2023-12-20T01:08:38;0.70;99.90
11639;DHT22;5875;35.940;126.892;2023-12-20T01:11:05;0.70;99.90
11639;DHT22;5875;35.940;126.892;2023-12-20T01:13:32;0.70;99.90
11639;DHT22;5875;35.940;126.892;2023-12-20T01:15:59;0.80;99.90
11639;DHT22;5875;35.940;126.892;2023-12-20T01:18:27;0.90;99.90
11639;DHT22;5875;35.940;126.892;2023-12-20T01:20:54;0.90;99.90
11639;DHT22;5875;35.940;126.892;2023-12-20T01:23:22;0.90;99.90
11639;DHT22;5875;35.940;126.892;2023-12-20T01:25:49;0.70;99.90
11639;DHT22;5875;35.940;126.892;2023-12-20T01:28:16;0.80;99.90
11639;DHT22;5875;35.940;126.892;2023-12-20T01:30:43;0.70;99.90
11639;DHT22;5875;35.940;126.892;2023-12-20T01:33:10;0.80;99.90
11639;DHT22;5875;35.940;126.892;2023-12-20T01:35:38;0.70;99.90
11639;DHT22;5875;35.940;126.892;2023-12-20T01:38:05;0.70;99.90
11639;DHT22;5875;35.940;126.892;2023-12-20T01:40:32;0.70;99.90
11639;DHT22;5875;35.940;126.892;2023-12-20T01:43:00;0.70;99.90
11639;DHT22;5875;35.940;126.892;2023-12-20T01:45:28;0.90;99.90
11639;DHT22;5875;35.940;126.892;2023-12-20T01:47:57;0.90;99.90
11639;DHT22;5875;35.940;126.892;2023-12-20T01:50:24;0.90;99.90
11639;DHT22;5875;35.940;126.892;2023-12-20T01:52:52;0.90;99.90
11639;DHT22;5875;35.940;126.892;2023-12-20T01:55:22;0.90;99.90
11639;DHT22;5875;35.940;126.892;2023-12-20T01:57:49;0.80;99.90
11639;DHT22;5875;35.940;126.892;2023-12-20T02:00:17;0.90;99.90
11639;DHT22;5875;35.940;126.892;2023-12-20T02:02:46;0.90;99.90
11639;DHT22;5875;35.940;126.892;2023-12-20T02:05:14;0.90;99.90
11639;DHT22;5875;35.940;126.892;2023-12-20T02:07:41;0.90;99.90
11639;DHT22;5875;35.940;126.892;2023-12-20T02:10:08;0.80;99.90
11639;DHT22;5875;35.940;126.892;2023-12-20T02:12:35;0.80;99.90
11639;DHT22;5875;35.940;126.892;2023-12-20T02:15:03;0.80;99.90
11639;DHT22;5875;35.940;126.892;2023-12-20T02:17:31;0.90;99.90
11639;DHT22;5875;35.940;126.892;2023-12-20T02:19:58;0.90;99.90
11639;DHT22;5875;35.940;126.892;2023-12-20T02:22:25;1.10;99.90
11639;DHT22;5875;35.940;126.892;2023-12-20T02:24:52;1.10;99.90
11639;DHT22;5875;35.940;126.892;2023-12-20T02:27:20;1.20;99.90
11639;DHT22;5875;35.940;126.892;2023-12-20T02:29:48;1.10;99.90
11639;DHT22;5875;35.940;126.892;2023-12-20T02:32:17;1.10;99.90
11639;DHT22;5875;35.940;126.892;2023-12-20T02:34:47;1.20;99.90
11639;DHT22;5875;35.940;126.892;2023-12-20T02:37:17;1.40;99.90
11639;DHT22;5875;35.940;126.892;2023-12-20T02:39:45;1.30;99.90
11639;DHT22;5875;35.940;126.892;2023-12-20T02:42:12;1.30;99.90
11639;DHT22;5875;35.940;126.892;2023-12-20T02:44:39;1.20;99.90
11639;DHT22;5875;35.940;126.892;2023-12-20T02:47:06;1.30;99.90
11639;DHT22;5875;35.940;126.892;2023-12-20T02:49:33;1.20;99.90
11639;DHT22;5875;35.940;126.892;2023-12-20T02:52:00;1.30;99.90
11639;DHT22;5875;35.940;126.892;2023-12-20T02:54:27;1.30;99.90
11639;DHT22;5875;35.940;126.892;2023-12-20T02:56:54;1.30;99.90
11639;DHT22;5875;35.940;126.892;2023-12-20T02:59:21;1.60;99.90
11639;DHT22;5875;35.940;126.892;2023-12-20T03:01:48;1.70;99.90
11639;DHT22;5875;35.940;126.892;2023-12-20T03:04:15;1.70;99.90
11639;DHT22;5875;35.940;126.892;2023-12-20T03:06:46;1.80;99.90
11639;DHT22;5875;35.940;126.892;2023-12-20T03:09:15;1.70;99.90
11639;DHT22;5875;35.940;126.892;2023-12-20T03:11:42;1.70;99.90
11639;DHT22;5875;35.940;126.892;2023-12-20T03:14:10;1.60;99.90
11639;DHT22;5875;35.940;126.892;2023-12-20T03:16:37;1.60;99.90
11639;DHT22;5875;35.940;126.892;2023-12-20T03:19:04;1.90;99.90
11639;DHT22;5875;35.940;126.892;2023-12-20T03:21:31;2.00;99.90
11639;DHT22;5875;35.940;126.892;2023-12-20T03:23:58;1.90;99.90
11639;DHT22;5875;35.940;126.892;2023-12-20T03:26:25;1.90;99.90
11639;DHT22;5875;35.940;126.892;2023-12-20T03:28:55;2.00;99.90
11639;DHT22;5875;35.940;126.892;2023-12-20T03:31:22;2.00;99.90
11639;DHT22;5875;35.940;126.892;2023-12-20T03:33:49;1.90;99.90
11639;DHT22;5875;35.940;126.892;2023-12-20T03:36:20;1.80;99.90
11639;DHT22;5875;35.940;126.892;2023-12-20T03:38:47;1.90;99.90
11639;DHT22;5875;35.940;126.892;2023-12-20T03:41:15;1.90;99.90
11639;DHT22;5875;35.940;126.892;2023-12-20T03:43:42;1.70;99.90
11639;DHT22;5875;35.940;126.892;2023-12-20T03:46:09;1.80;99.90
11639;DHT22;5875;35.940;126.892;2023-12-20T03:48:37;1.90;99.90
11639;DHT22;5875;35.940;126.892;2023-12-20T03:51:04;1.70;99.90
11639;DHT22;5875;35.940;126.892;2023-12-20T03:53:31;1.90;99.90
11639;DHT22;5875;35.940;126.892;2023-12-20T03:55:58;1.90;99.90
11639;DHT22;5875;35.940;126.892;2023-12-20T03:58:25;2.00;99.90
11639;DHT22;5875;35.940;126.892;2023-12-20T04:00:55;2.00;99.90
11639;DHT22;5875;35.940;126.892;2023-12-20T04:03:23;1.80;99.90
11639;DHT22;5875;35.940;126.892;2023-12-20T04:05:50;1.80;99.90
11639;DHT22;5875;35.940;126.892;2023-12-20T04:08:17;1.90;99.90
11639;DHT22;5875;35.940;126.892;2023-12-20T04:10:44;1.70;99.90
11639;DHT22;5875;35.940;126.892;2023-12-20T04:13:14;1.90;99.90
11639;DHT22;5875;35.940;126.892;2023-12-20T04:15:41;1.90;99.90
11639;DHT22;5875;35.940;126.892;2023-12-20T04:18:08;1.80;99.90
11639;DHT22;5875;35.940;126.892;2023-12-20T04:20:35;1.80;99.90
11639;DHT22;5875;35.940;126.892;2023-12-20T04:23:02;1.70;99.90
11639;DHT22;5875;35.940;126.892;2023-12-20T04:25:29;1.70;99.90
11639;DHT22;5875;35.940;126.892;2023-12-20T04:27:56;1.70;99.90
11639;DHT22;5875;35.940;126.892;2023-12-20T04:30:26;1.90;99.90
11639;DHT22;5875;35.940;126.892;2023-12-20T04:32:53;1.70;99.90
11639;DHT22;5875;35.940;126.892;2023-12-20T04:35:20;1.90;99.90
11639;DHT22;5875;35.940;126.892;2023-12-20T04:37:47;2.10;99.90
11639;DHT22;5875;35.940;126.892;2023-12-20T04:40:16;2.20;99.90
11639;DHT22;5875;35.940;126.892;2023-12-20T04:42:43;2.30;99.90
11639;DHT22;5875;35.940;126.892;2023-12-20T04:45:12;2.20;99.90
11639;DHT22;5875;35.940;126.892;2023-12-20T04:47:42;2.30;99.90
11639;DHT22;5875;35.940;126.892;2023-12-20T04:50:09;2.30;99.90
11639;DHT22;5875;35.940;126.892;2023-12-20T04:52:37;2.30;99.90
11639;DHT22;5875;35.940;126.892;2023-12-20T04:55:05;2.10;99.90
11639;DHT22;5875;35.940;126.892;2023-12-20T04:57:32;2.00;99.90
11639;DHT22;5875;35.940;126.892;2023-12-20T04:59:59;1.90;99.90
11639;DHT22;5875;35.940;126.892;2023-12-20T05:02:26;1.90;99.90
11639;DHT22;5875;35.940;126.892;2023-12-20T05:04:53;1.90;99.90
11639;DHT22;5875;35.940;126.892;2023-12-20T05:07:20;1.90;99.90
11639;DHT22;5875;35.940;126.892;2023-12-20T05:09:47;1.80;99.90
11639;DHT22;5875;35.940;126.892;2023-12-20T05:12:14;1.90;99.90
11639;DHT22;5875;35.940;126.892;2023-12-20T05:14:42;1.80;99.90
11639;DHT22;5875;35.940;126.892;2023-12-20T05:17:09;2.00;99.90
11639;DHT22;5875;35.940;126.892;2023-12-20T05:19:36;2.30;99.90
11639;DHT22;5875;35.940;126.892;2023-12-20T05:22:04;2.30;99.90
11639;DHT22;5875;35.940;126.892;2023-12-20T05:24:34;2.50;99.90
11639;DHT22;5875;35.940;126.892;2023-12-20T05:27:01;2.10;99.90
11639;DHT22;5875;35.940;126.892;2023-12-20T05:29:28;2.30;99.90
11639;DHT22;5875;35.940;126.892;2023-12-20T05:31:55;2.20;99.90
11639;DHT22;5875;35.940;126.892;2023-12-20T05:34:22;2.00;99.90
11639;DHT22;5875;35.940;126.892;2023-12-20T05:36:49;1.70;99.90
11639;DHT22;5875;35.940;126.892;2023-12-20T05:39:16;1.50;99.90
11639;DHT22;5875;35.940;126.892;2023-12-20T05:41:46;1.50;99.90
11639;DHT22;5875;35.940;126.892;2023-12-20T05:44:14;1.50;99.90
11639;DHT22;5875;35.940;126.892;2023-12-20T05:46:41;1.40;99.90
11639;DHT22;5875;35.940;126.892;2023-12-20T05:49:11;1.30;99.90
11639;DHT22;5875;35.940;126.892;2023-12-20T05:51:38;1.40;99.90
11639;DHT22;5875;35.940;126.892;2023-12-20T05:54:05;1.60;99.90
11639;DHT22;5875;35.940;126.892;2023-12-20T05:56:32;1.80;99.90
11639;DHT22;5875;35.940;126.892;2023-12-20T05:58:59;1.60;99.90
11639;DHT22;5875;35.940;126.892;2023-12-20T06:01:26;1.60;99.90
11639;DHT22;5875;35.940;126.892;2023-12-20T06:03:53;1.40;99.90
11639;DHT22;5875;35.940;126.892;2023-12-20T06:06:20;1.30;99.90
11639;DHT22;5875;35.940;126.892;2023-12-20T06:08:47;1.40;99.90
11639;DHT22;5875;35.940;126.892;2023-12-20T06:11:14;1.40;99.90
11639;DHT22;5875;35.940;126.892;2023-12-20T06:13:42;1.10;99.90
11639;DHT22;5875;35.940;126.892;2023-12-20T06:16:11;1.00;99.90
11639;DHT22;5875;35.940;126.892;2023-12-20T06:18:39;1.20;99.90
11639;DHT22;5875;35.940;126.892;2023-12-20T06:21:06;1.30;99.90
11639;DHT22;5875;35.940;126.892;2023-12-20T06:23:34;1.40;99.90
11639;DHT22;5875;35.940;126.892;2023-12-20T06:26:04;1.30;99.90
11639;DHT22;5875;35.940;126.892;2023-12-20T06:28:31;1.20;99.90
11639;DHT22;5875;35.940;126.892;2023-12-20T06:30:58;0.90;99.90
11639;DHT22;5875;35.940;126.892;2023-12-20T06:33:27;0.80;99.90
11639;DHT22;5875;35.940;126.892;2023-12-20T06:35:54;0.70;99.90
11639;DHT22;5875;35.940;126.892;2023-12-20T06:38:21;0.70;99.90
11639;DHT22;5875;35.940;126.892;2023-12-20T06:40:48;0.60;99.90
11639;DHT22;5875;35.940;126.892;2023-12-20T06:43:15;0.50;99.90
11639;DHT22;5875;35.940;126.892;2023-12-20T06:45:42;0.40;99.90
11639;DHT22;5875;35.940;126.892;2023-12-20T06:48:10;0.40;99.90
11639;DHT22;5875;35.940;126.892;2023-12-20T06:50:39;0.30;99.90
11639;DHT22;5875;35.940;126.892;2023-12-20T06:53:07;0.40;99.90
11639;DHT22;5875;35.940;126.892;2023-12-20T06:55:35;0.40;99.90
11639;DHT22;5875;35.940;126.892;2023-12-20T06:58:04;0.40;99.90
11639;DHT22;5875;35.940;126.892;2023-12-20T07:00:31;0.60;99.90
11639;DHT22;5875;35.940;126.892;2023-12-20T07:02:59;0.60;99.90
11639;DHT22;5875;35.940;126.892;2023-12-20T07:05:26;0.50;99.90
11639;DHT22;5875;35.940;126.892;2023-12-20T07:07:53;0.30;99.90
11639;DHT22;5875;35.940;126.892;2023-12-20T07:10:20;0.30;99.90
11639;DHT22;5875;35.940;126.892;2023-12-20T07:12:50;0.20;99.90
11639;DHT22;5875;35.940;126.892;2023-12-20T07:15:21;0.30;99.90
11639;DHT22;5875;35.940;126.892;2023-12-20T07:17:49;0.20;99.90
11639;DHT22;5875;35.940;126.892;2023-12-20T07:20:16;0.20;99.90
11639;DHT22;5875;35.940;126.892;2023-12-20T07:22:43;0.20;99.90
11639;DHT22;5875;35.940;126.892;2023-12-20T07:25:10;0.20;99.90
11639;DHT22;5875;35.940;126.892;2023-12-20T07:27:40;0.00;99.90
11639;DHT22;5875;35.940;126.892;2023-12-20T07:30:08;-0.10;99.90
11639;DHT22;5875;35.940;126.892;2023-12-20T07:32:35;0.00;99.90
11639;DHT22;5875;35.940;126.892;2023-12-20T07:35:02;-0.10;99.90
11639;DHT22;5875;35.940;126.892;2023-12-20T07:37:29;0.00;99.90
11639;DHT22;5875;35.940;126.892;2023-12-20T07:39:56;0.10;99.90
11639;DHT22;5875;35.940;126.892;2023-12-20T07:42:23;0.10;99.90
11639;DHT22;5875;35.940;126.892;2023-12-20T07:44:51;-0.10;99.90
11639;DHT22;5875;35.940;126.892;2023-12-20T07:47:18;-0.10;99.90
11639;DHT22;5875;35.940;126.892;2023-12-20T07:49:49;-0.20;99.90
11639;DHT22;5875;35.940;126.892;2023-12-20T07:52:18;-0.30;99.90
11639;DHT22;5875;35.940;126.892;2023-12-20T07:54:46;-0.30;99.90
11639;DHT22;5875;35.940;126.892;2023-12-20T07:57:13;-0.30;99.90
11639;DHT22;5875;35.940;126.892;2023-12-20T07:59:40;-0.40;99.90
11639;DHT22;5875;35.940;126.892;2023-12-20T08:02:07;-0.50;99.90
11639;DHT22;5875;35.940;126.892;2023-12-20T08:04:37;-0.50;99.90
11639;DHT22;5875;35.940;126.892;2023-12-20T08:07:04;-0.60;99.90
11639;DHT22;5875;35.940;126.892;2023-12-20T08:09:34;-0.70;99.90
11639;DHT22;5875;35.940;126.892;2023-12-20T08:12:03;-0.80;99.90
11639;DHT22;5875;35.940;126.892;2023-12-20T08:14:30;-0.80;99.90
11639;DHT22;5875;35.940;126.892;2023-12-20T08:16:58;-0.80;99.90
11639;DHT22;5875;35.940;126.892;2023-12-20T08:19:25;-0.90;99.90
11639;DHT22;5875;35.940;126.892;2023-12-20T08:21:52;-0.90;99.90
11639;DHT22;5875;35.940;126.892;2023-12-20T08:24:19;-1.00;99.90
11639;DHT22;5875;35.940;126.892;2023-12-20T08:26:46;-0.90;99.90
11639;DHT22;5875;35.940;126.892;2023-12-20T08:29:14;-0.90;99.90
11639;DHT22;5875;35.940;126.892;2023-12-20T08:31:41;-0.90;99.90
11639;DHT22;5875;35.940;126.892;2023-12-20T08:34:08;-0.90;99.90
11639;DHT22;5875;35.940;126.892;2023-12-20T08:36:35;-0.90;99.90
11639;DHT22;5875;35.940;126.892;2023-12-20T08:39:02;-0.90;99.90
11639;DHT22;5875;35.940;126.892;2023-12-20T08:41:32;-1.00;99.90
11639;DHT22;5875;35.940;126.892;2023-12-20T08:43:59;-1.10;99.90
11639;DHT22;5875;35.940;126.892;2023-12-20T08:46:26;-1.20;99.90
11639;DHT22;5875;35.940;126.892;2023-12-20T08:48:54;-1.20;99.90
11639;DHT22;5875;35.940;126.892;2023-12-20T08:51:23;-1.20;99.90
11639;DHT22;5875;35.940;126.892;2023-12-20T08:53:52;-1.20;99.90
11639;DHT22;5875;35.940;126.892;2023-12-20T08:56:22;-1.30;99.90
11639;DHT22;5875;35.940;126.892;2023-12-20T08:58:49;-1.40;99.90
11639;DHT22;5875;35.940;126.892;2023-12-20T09:01:19;-1.40;99.90
11639;DHT22;5875;35.940;126.892;2023-12-20T09:03:46;-1.40;99.90
11639;DHT22;5875;35.940;126.892;2023-12-20T09:06:13;-1.50;99.90
11639;DHT22;5875;35.940;126.892;2023-12-20T09:08:40;-1.60;99.90
11639;DHT22;5875;35.940;126.892;2023-12-20T09:11:07;-1.50;99.90
11639;DHT22;5875;35.940;126.892;2023-12-20T09:13:34;-1.50;99.90
11639;DHT22;5875;35.940;126.892;2023-12-20T09:16:02;-1.50;99.90
11639;DHT22;5875;35.940;126.892;2023-12-20T09:18:29;-1.60;99.90
11639;DHT22;5875;35.940;126.892;2023-12-20T09:20:56;-1.60;99.90
11639;DHT22;5875;35.940;126.892;2023-12-20T09:23:26;-1.60;99.90
11639;DHT22;5875;35.940;126.892;2023-12-20T09:25:59;-1.60;99.90
11639;DHT22;5875;35.940;126.892;2023-12-20T09:28:26;-1.70;99.90
11639;DHT22;5875;35.940;126.892;2023-12-20T09:30:53;-1.90;99.90
11639;DHT22;5875;35.940;126.892;2023-12-20T09:33:20;-1.90;99.90
11639;DHT22;5875;35.940;126.892;2023-12-20T09:35:47;-1.90;99.90
11639;DHT22;5875;35.940;126.892;2023-12-20T09:38:14;-2.00;99.90
11639;DHT22;5875;35.940;126.892;2023-12-20T09:40:43;-2.00;99.90
11639;DHT22;5875;35.940;126.892;2023-12-20T09:43:18;-2.00;99.90
11639;DHT22;5875;35.940;126.892;2023-12-20T09:45:49;-2.00;99.90
11639;DHT22;5875;35.940;126.892;2023-12-20T09:48:20;-2.00;99.90
11639;DHT22;5875;35.940;126.892;2023-12-20T09:50:47;-1.90;99.90
11639;DHT22;5875;35.940;126.892;2023-12-20T09:53:18;-2.10;99.90
11639;DHT22;5875;35.940;126.892;2023-12-20T09:55:46;-2.00;99.90
11639;DHT22;5875;35.940;126.892;2023-12-20T09:58:13;-2.10;99.90
11639;DHT22;5875;35.940;126.892;2023-12-20T10:00:40;-2.10;99.90
11639;DHT22;5875;35.940;126.892;2023-12-20T10:03:09;-2.20;99.90
11639;DHT22;5875;35.940;126.892;2023-12-20T10:05:36;-2.30;99.90
11639;DHT22;5875;35.940;126.892;2023-12-20T10:08:04;-2.30;99.90
11639;DHT22;5875;35.940;126.892;2023-12-20T10:10:31;-2.20;99.90
11639;DHT22;5875;35.940;126.892;2023-12-20T10:13:06;-2.20;99.90
11639;DHT22;5875;35.940;126.892;2023-12-20T10:15:34;-2.40;99.90
11639;DHT22;5875;35.940;126.892;2023-12-20T10:18:04;-2.30;99.90
11639;DHT22;5875;35.940;126.892;2023-12-20T10:20:32;-2.20;99.90
11639;DHT22;5875;35.940;126.892;2023-12-20T10:23:00;-2.20;99.90
11639;DHT22;5875;35.940;126.892;2023-12-20T10:25:28;-2.20;99.90
11639;DHT22;5875;35.940;126.892;2023-12-20T10:28:11;-2.30;99.90
11639;DHT22;5875;35.940;126.892;2023-12-20T10:30:39;-2.40;99.90
11639;DHT22;5875;35.940;126.892;2023-12-20T10:33:07;-2.50;99.90
11639;DHT22;5875;35.940;126.892;2023-12-20T10:35:36;-2.60;99.90
11639;DHT22;5875;35.940;126.892;2023-12-20T10:38:06;-2.60;99.90
11639;DHT22;5875;35.940;126.892;2023-12-20T10:40:37;-2.60;99.90
11639;DHT22;5875;35.940;126.892;2023-12-20T10:43:04;-2.60;99.90
11639;DHT22;5875;35.940;126.892;2023-12-20T10:45:32;-2.50;99.90
11639;DHT22;5875;35.940;126.892;2023-12-20T10:47:59;-2.50;99.90
11639;DHT22;5875;35.940;126.892;2023-12-20T10:50:27;-2.50;99.90
11639;DHT22;5875;35.940;126.892;2023-12-20T10:52:56;-2.60;99.90
11639;DHT22;5875;35.940;126.892;2023-12-20T10:55:24;-2.50;99.90
11639;DHT22;5875;35.940;126.892;2023-12-20T10:57:52;-2.60;99.90
11639;DHT22;5875;35.940;126.892;2023-12-20T11:00:21;-2.60;99.90
11639;DHT22;5875;35.940;126.892;2023-12-20T11:02:53;-2.60;99.90
11639;DHT22;5875;35.940;126.892;2023-12-20T11:08:32;-2.70;99.90
11639;DHT22;5875;35.940;126.892;2023-12-20T11:11:10;-2.80;99.90
11639;DHT22;5875;35.940;126.892;2023-12-20T11:14:03;-2.80;99.90
11639;DHT22;5875;35.940;126.892;2023-12-20T11:16:32;-2.80;99.90
11639;DHT22;5875;35.940;126.892;2023-12-20T11:19:05;-2.80;99.90
11639;DHT22;5875;35.940;126.892;2023-12-20T11:21:32;-2.90;99.90
11639;DHT22;5875;35.940;126.892;2023-12-20T11:24:03;-3.00;99.90
11639;DHT22;5875;35.940;126.892;2023-12-20T11:26:30;-3.00;99.90
11639;DHT22;5875;35.940;126.892;2023-12-20T11:29:36;-3.00;99.90
11639;DHT22;5875;35.940;126.892;2023-12-20T11:32:27;-3.00;99.90
11639;DHT22;5875;35.940;126.892;2023-12-20T11:37:38;-3.00;99.90
11639;DHT22;5875;35.940;126.892;2023-12-20T11:40:15;-2.90;99.90
11639;DHT22;5875;35.940;126.892;2023-12-20T11:42:44;-2.80;99.90
11639;DHT22;5875;35.940;126.892;2023-12-20T11:45:15;-2.90;99.90
11639;DHT22;5875;35.940;126.892;2023-12-20T11:47:44;-2.90;99.90
11639;DHT22;5875;35.940;126.892;2023-12-20T11:50:12;-2.90;99.90
11639;DHT22;5875;35.940;126.892;2023-12-20T11:52:39;-2.80;99.90
11639;DHT22;5875;35.940;126.892;2023-12-20T11:55:07;-2.80;99.90
11639;DHT22;5875;35.940;126.892;2023-12-20T11:57:34;-2.80;99.90
11639;DHT22;5875;35.940;126.892;2023-12-20T12:00:03;-2.90;99.90
11639;DHT22;5875;35.940;126.892;2023-12-20T12:02:31;-3.00;99.90
11639;DHT22;5875;35.940;126.892;2023-12-20T12:04:59;-3.00;99.90
11639;DHT22;5875;35.940;126.892;2023-12-20T12:07:26;-2.90;99.90
11639;DHT22;5875;35.940;126.892;2023-12-20T12:09:54;-2.90;99.90
11639;DHT22;5875;35.940;126.892;2023-12-20T12:12:21;-2.90;99.90
11639;DHT22;5875;35.940;126.892;2023-12-20T12:14:48;-2.90;99.90
11639;DHT22;5875;35.940;126.892;2023-12-20T12:17:18;-2.80;99.90
11639;DHT22;5875;35.940;126.892;2023-12-20T12:19:45;-2.80;99.90
11639;DHT22;5875;35.940;126.892;2023-12-20T12:22:14;-2.80;99.90
11639;DHT22;5875;35.940;126.892;2023-12-20T12:24:46;-2.80;99.90
11639;DHT22;5875;35.940;126.892;2023-12-20T12:27:14;-2.80;99.90
11639;DHT22;5875;35.940;126.892;2023-12-20T12:30:00;-2.90;99.90
11639;DHT22;5875;35.940;126.892;2023-12-20T12:32:29;-3.00;99.90
11639;DHT22;5875;35.940;126.892;2023-12-20T12:34:56;-3.00;99.90
11639;DHT22;5875;35.940;126.892;2023-12-20T12:37:26;-3.00;99.90
11639;DHT22;5875;35.940;126.892;2023-12-20T12:39:57;-3.00;99.90
11639;DHT22;5875;35.940;126.892;2023-12-20T12:42:24;-3.00;99.90
11639;DHT22;5875;35.940;126.892;2023-12-20T12:44:55;-2.80;99.90
11639;DHT22;5875;35.940;126.892;2023-12-20T12:47:22;-2.80;99.90
11639;DHT22;5875;35.940;126.892;2023-12-20T12:49:53;-2.90;99.90
11639;DHT22;5875;35.940;126.892;2023-12-20T12:52:20;-2.80;99.90
11639;DHT22;5875;35.940;126.892;2023-12-20T12:54:48;-2.70;99.90
11639;DHT22;5875;35.940;126.892;2023-12-20T12:57:15;-2.70;99.90
11639;DHT22;5875;35.940;126.892;2023-12-20T12:59:44;-2.70;99.90
11639;DHT22;5875;35.940;126.892;2023-12-20T13:02:15;-2.70;99.90
11639;DHT22;5875;35.940;126.892;2023-12-20T13:04:43;-2.70;99.90
11639;DHT22;5875;35.940;126.892;2023-12-20T13:07:10;-2.80;99.90
11639;DHT22;5875;35.940;126.892;2023-12-20T13:09:38;-2.80;99.90
11639;DHT22;5875;35.940;126.892;2023-12-20T13:12:06;-2.70;99.90
11639;DHT22;5875;35.940;126.892;2023-12-20T13:14:34;-2.70;99.90
11639;DHT22;5875;35.940;126.892;2023-12-20T13:17:04;-2.70;99.90
11639;DHT22;5875;35.940;126.892;2023-12-20T13:19:32;-2.70;99.90
11639;DHT22;5875;35.940;126.892;2023-12-20T13:21:59;-2.70;99.90
11639;DHT22;5875;35.940;126.892;2023-12-20T13:24:26;-2.80;99.90
11639;DHT22;5875;35.940;126.892;2023-12-20T13:26:53;-2.80;99.90
11639;DHT22;5875;35.940;126.892;2023-12-20T13:29:20;-2.70;99.90
11639;DHT22;5875;35.940;126.892;2023-12-20T13:31:48;-2.70;99.90
11639;DHT22;5875;35.940;126.892;2023-12-20T13:34:15;-2.90;99.90
11639;DHT22;5875;35.940;126.892;2023-12-20T13:36:44;-2.90;99.90
11639;DHT22;5875;35.940;126.892;2023-12-20T13:39:16;-2.90;99.90
11639;DHT22;5875;35.940;126.892;2023-12-20T13:41:43;-2.90;99.90
11639;DHT22;5875;35.940;126.892;2023-12-20T13:44:10;-3.00;99.90
11639;DHT22;5875;35.940;126.892;2023-12-20T13:46:40;-3.10;99.90
11639;DHT22;5875;35.940;126.892;2023-12-20T13:49:07;-3.10;99.90
11639;DHT22;5875;35.940;126.892;2023-12-20T13:51:35;-3.20;99.90
11639;DHT22;5875;35.940;126.892;2023-12-20T13:54:02;-3.20;99.90
11639;DHT22;5875;35.940;126.892;2023-12-20T13:56:29;-3.30;99.90
11639;DHT22;5875;35.940;126.892;2023-12-20T13:58:56;-3.20;99.90
11639;DHT22;5875;35.940;126.892;2023-12-20T14:01:24;-3.20;99.90
11639;DHT22;5875;35.940;126.892;2023-12-20T14:03:51;-3.10;99.90
11639;DHT22;5875;35.940;126.892;2023-12-20T14:06:18;-3.10;99.90
11639;DHT22;5875;35.940;126.892;2023-12-20T14:08:45;-3.00;99.90
11639;DHT22;5875;35.940;126.892;2023-12-20T14:11:12;-3.00;99.90
11639;DHT22;5875;35.940;126.892;2023-12-20T14:13:41;-3.10;99.90
11639;DHT22;5875;35.940;126.892;2023-12-20T14:16:09;-3.10;99.90
11639;DHT22;5875;35.940;126.892;2023-12-20T14:18:37;-3.10;99.90
11639;DHT22;5875;35.940;126.892;2023-12-20T14:21:04;-3.20;99.90
11639;DHT22;5875;35.940;126.892;2023-12-20T14:23:32;-3.30;99.90
11639;DHT22;5875;35.940;126.892;2023-12-20T14:26:02;-3.40;99.90
11639;DHT22;5875;35.940;126.892;2023-12-20T14:28:30;-3.50;99.90
11639;DHT22;5875;35.940;126.892;2023-12-20T14:30:57;-3.50;99.90
11639;DHT22;5875;35.940;126.892;2023-12-20T14:33:24;-3.50;99.90
11639;DHT22;5875;35.940;126.892;2023-12-20T14:35:52;-3.30;99.90
11639;DHT22;5875;35.940;126.892;2023-12-20T14:38:19;-3.20;99.90
11639;DHT22;5875;35.940;126.892;2023-12-20T14:40:46;-3.10;99.90
11639;DHT22;5875;35.940;126.892;2023-12-20T14:43:13;-3.10;99.90
11639;DHT22;5875;35.940;126.892;2023-12-20T14:45:42;-3.10;99.90
11639;DHT22;5875;35.940;126.892;2023-12-20T14:48:10;-3.10;99.90
11639;DHT22;5875;35.940;126.892;2023-12-20T14:50:37;-3.20;99.90
11639;DHT22;5875;35.940;126.892;2023-12-20T14:53:04;-3.10;99.90
11639;DHT22;5875;35.940;126.892;2023-12-20T14:55:31;-3.10;99.90
11639;DHT22;5875;35.940;126.892;2023-12-20T14:57:58;-3.20;99.90
11639;DHT22;5875;35.940;126.892;2023-12-20T15:00:25;-3.20;99.90
11639;DHT22;5875;35.940;126.892;2023-12-20T15:02:53;-3.10;99.90
11639;DHT22;5875;35.940;126.892;2023-12-20T15:05:23;-3.10;99.90
11639;DHT22;5875;35.940;126.892;2023-12-20T15:07:50;-3.10;99.90
11639;DHT22;5875;35.940;126.892;2023-12-20T15:10:17;-3.20;99.90
11639;DHT22;5875;35.940;126.892;2023-12-20T15:12:45;-3.20;99.90
11639;DHT22;5875;35.940;126.892;2023-12-20T15:15:12;-3.20;99.90
11639;DHT22;5875;35.940;126.892;2023-12-20T15:17:40;-3.20;99.90
11639;DHT22;5875;35.940;126.892;2023-12-20T15:20:07;-3.20;99.90
11639;DHT22;5875;35.940;126.892;2023-12-20T15:22:37;-3.70;99.90
11639;DHT22;5875;35.940;126.892;2023-12-20T15:25:06;-3.60;99.90
11639;DHT22;5875;35.940;126.892;2023-12-20T15:27:35;-3.50;99.90
11639;DHT22;5875;35.940;126.892;2023-12-20T15:30:06;-3.40;99.90
11639;DHT22;5875;35.940;126.892;2023-12-20T15:32:35;-3.40;99.90
11639;DHT22;5875;35.940;126.892;2023-12-20T15:35:03;-3.60;99.90